sensor_id;sensor_type;location;lat;lon;timestamp;temperature;humidity
17208;DHT22;8720;48.488;9.202;2024-03-06T00:01:10;9.10;54.70
17208;DHT22;8720;48.488;9.202;2024-03-06T00:19:47;9.10;55.30
17208;DHT22;8720;48.488;9.202;2024-03-06T00:22:14;9.10;55.10
17208;DHT22;8720;48.488;9.202;2024-03-06T00:24:44;9.10;55.20
17208;DHT22;8720;48.488;9.202;2024-03-06T00:27:13;9.00;55.20
17208;DHT22;8720;48.488;9.202;2024-03-06T00:29:40;9.00;55.30
17208;DHT22;8720;48.488;9.202;2024-03-06T00:32:08;9.00;55.40
17208;DHT22;8720;48.488;9.202;2024-03-06T00:34:36;9.00;55.50
17208;DHT22;8720;48.488;9.202;2024-03-06T00:37:04;9.00;55.60
17208;DHT22;8720;48.488;9.202;2024-03-06T00:39:31;9.00;55.60
17208;DHT22;8720;48.488;9.202;2024-03-06T00:41:58;9.00;55.70
17208;DHT22;8720;48.488;9.202;2024-03-06T00:44:26;9.00;55.90
17208;DHT22;8720;48.488;9.202;2024-03-06T00:46:53;8.90;55.80
17208;DHT22;8720;48.488;9.202;2024-03-06T00:49:21;8.90;56.00
17208;DHT22;8720;48.488;9.202;2024-03-06T00:51:49;8.90;56.20
17208;DHT22;8720;48.488;9.202;2024-03-06T00:54:17;8.90;56.40
17208;DHT22;8720;48.488;9.202;2024-03-06T00:56:44;8.90;56.50
17208;DHT22;8720;48.488;9.202;2024-03-06T00:59:11;8.90;56.60
17208;DHT22;8720;48.488;9.202;2024-03-06T01:01:39;8.90;56.70
17208;DHT22;8720;48.488;9.202;2024-03-06T01:04:07;8.90;56.80
17208;DHT22;8720;48.488;9.202;2024-03-06T01:06:34;8.90;56.90
17208;DHT22;8720;48.488;9.202;2024-03-06T01:09:03;8.90;57.00
17208;DHT22;8720;48.488;9.202;2024-03-06T01:11:30;8.90;57.10
17208;DHT22;8720;48.488;9.202;2024-03-06T01:13:57;8.90;57.10
17208;DHT22;8720;48.488;9.202;2024-03-06T01:16:25;8.90;57.10
17208;DHT22;8720;48.488;9.202;2024-03-06T01:18:52;8.90;57.20
17208;DHT22;8720;48.488;9.202;2024-03-06T01:21:19;8.90;57.20
17208;DHT22;8720;48.488;9.202;2024-03-06T01:23:47;8.90;57.30
17208;DHT22;8720;48.488;9.202;2024-03-06T01:26:16;8.90;57.40
17208;DHT22;8720;48.488;9.202;2024-03-06T01:28:43;8.90;57.60
17208;DHT22;8720;48.488;9.202;2024-03-06T01:31:10;8.90;57.60
17208;DHT22;8720;48.488;9.202;2024-03-06T01:33:38;8.90;57.70
17208;DHT22;8720;48.488;9.202;2024-03-06T01:36:06;8.90;57.80
17208;DHT22;8720;48.488;9.202;2024-03-06T01:38:33;8.90;57.90
17208;DHT22;8720;48.488;9.202;2024-03-06T01:41:01;8.90;58.00
17208;DHT22;8720;48.488;9.202;2024-03-06T01:43:37;8.80;58.00
17208;DHT22;8720;48.488;9.202;2024-03-06T01:46:05;8.80;58.40
17208;DHT22;8720;48.488;9.202;2024-03-06T01:48:33;8.80;58.20
17208;DHT22;8720;48.488;9.202;2024-03-06T01:51:02;8.80;58.30
17208;DHT22;8720;48.488;9.202;2024-03-06T01:53:32;8.80;58.40
17208;DHT22;8720;48.488;9.202;2024-03-06T01:56:02;8.80;58.50
17208;DHT22;8720;48.488;9.202;2024-03-06T01:58:32;8.80;58.40
17208;DHT22;8720;48.488;9.202;2024-03-06T02:01:01;8.80;58.50
17208;DHT22;8720;48.488;9.202;2024-03-06T02:03:29;8.80;58.50
17208;DHT22;8720;48.488;9.202;2024-03-06T02:06:00;8.80;58.60
17208;DHT22;8720;48.488;9.202;2024-03-06T02:08:29;8.90;58.70
17208;DHT22;8720;48.488;9.202;2024-03-06T02:10:56;8.90;58.70
17208;DHT22;8720;48.488;9.202;2024-03-06T02:13:26;8.90;58.80
17208;DHT22;8720;48.488;9.202;2024-03-06T02:15:54;8.90;58.90
17208;DHT22;8720;48.488;9.202;2024-03-06T02:18:22;8.90;59.00
17208;DHT22;8720;48.488;9.202;2024-03-06T02:20:51;8.90;59.00
17208;DHT22;8720;48.488;9.202;2024-03-06T02:23:18;8.90;59.20
17208;DHT22;8720;48.488;9.202;2024-03-06T02:25:47;9.00;59.20
17208;DHT22;8720;48.488;9.202;2024-03-06T02:28:16;8.90;59.10
17208;DHT22;8720;48.488;9.202;2024-03-06T02:30:43;9.00;59.20
17208;DHT22;8720;48.488;9.202;2024-03-06T02:33:11;8.90;58.90
17208;DHT22;8720;48.488;9.202;2024-03-06T02:35:39;8.90;58.90
17208;DHT22;8720;48.488;9.202;2024-03-06T02:38:08;8.90;58.80
17208;DHT22;8720;48.488;9.202;2024-03-06T02:40:35;8.90;58.80
17208;DHT22;8720;48.488;9.202;2024-03-06T02:43:03;8.90;58.70
17208;DHT22;8720;48.488;9.202;2024-03-06T02:45:30;8.90;58.70
17208;DHT22;8720;48.488;9.202;2024-03-06T02:47:58;8.80;58.60
17208;DHT22;8720;48.488;9.202;2024-03-06T02:50:25;8.80;58.70
17208;DHT22;8720;48.488;9.202;2024-03-06T02:52:53;8.80;58.70
17208;DHT22;8720;48.488;9.202;2024-03-06T02:55:22;8.80;59.40
17208;DHT22;8720;48.488;9.202;2024-03-06T02:57:50;8.80;59.20
17208;DHT22;8720;48.488;9.202;2024-03-06T03:05:33;8.70;58.90
17208;DHT22;8720;48.488;9.202;2024-03-06T03:08:00;8.70;58.90
17208;DHT22;8720;48.488;9.202;2024-03-06T03:10:31;8.70;58.90
17208;DHT22;8720;48.488;9.202;2024-03-06T03:13:00;8.70;58.90
17208;DHT22;8720;48.488;9.202;2024-03-06T03:15:27;8.60;58.80
17208;DHT22;8720;48.488;9.202;2024-03-06T03:17:55;8.60;58.90
17208;DHT22;8720;48.488;9.202;2024-03-06T03:20:22;8.60;59.00
17208;DHT22;8720;48.488;9.202;2024-03-06T03:22:49;8.60;59.00
17208;DHT22;8720;48.488;9.202;2024-03-06T03:25:16;8.60;59.00
17208;DHT22;8720;48.488;9.202;2024-03-06T03:27:45;8.60;59.00
17208;DHT22;8720;48.488;9.202;2024-03-06T03:30:13;8.60;59.10
17208;DHT22;8720;48.488;9.202;2024-03-06T03:32:41;8.60;59.10
17208;DHT22;8720;48.488;9.202;2024-03-06T03:35:08;8.60;59.10
17208;DHT22;8720;48.488;9.202;2024-03-06T03:37:36;8.60;59.20
17208;DHT22;8720;48.488;9.202;2024-03-06T03:40:04;8.60;59.20
17208;DHT22;8720;48.488;9.202;2024-03-06T03:42:33;8.60;59.30
17208;DHT22;8720;48.488;9.202;2024-03-06T03:45:01;8.60;59.30
17208;DHT22;8720;48.488;9.202;2024-03-06T03:47:30;8.60;59.50
17208;DHT22;8720;48.488;9.202;2024-03-06T03:49:57;8.60;59.40
17208;DHT22;8720;48.488;9.202;2024-03-06T03:52:25;8.60;59.40
17208;DHT22;8720;48.488;9.202;2024-03-06T03:54:52;8.60;59.50
17208;DHT22;8720;48.488;9.202;2024-03-06T03:57:20;8.60;59.60
17208;DHT22;8720;48.488;9.202;2024-03-06T03:59:47;8.60;59.60
17208;DHT22;8720;48.488;9.202;2024-03-06T04:02:16;8.70;59.70
17208;DHT22;8720;48.488;9.202;2024-03-06T04:04:43;8.60;59.70
17208;DHT22;8720;48.488;9.202;2024-03-06T04:07:12;8.70;59.70
17208;DHT22;8720;48.488;9.202;2024-03-06T04:09:42;8.60;59.60
17208;DHT22;8720;48.488;9.202;2024-03-06T04:12:09;8.70;59.80
17208;DHT22;8720;48.488;9.202;2024-03-06T04:14:36;8.60;59.70
17208;DHT22;8720;48.488;9.202;2024-03-06T04:17:04;8.60;59.80
17208;DHT22;8720;48.488;9.202;2024-03-06T04:19:33;8.60;59.70
17208;DHT22;8720;48.488;9.202;2024-03-06T04:22:00;8.60;59.80
17208;DHT22;8720;48.488;9.202;2024-03-06T04:24:28;8.60;59.70
17208;DHT22;8720;48.488;9.202;2024-03-06T04:26:56;8.60;59.70
17208;DHT22;8720;48.488;9.202;2024-03-06T04:29:23;8.60;59.70
17208;DHT22;8720;48.488;9.202;2024-03-06T04:31:50;8.60;60.20
17208;DHT22;8720;48.488;9.202;2024-03-06T04:34:17;8.70;59.70
17208;DHT22;8720;48.488;9.202;2024-03-06T04:36:47;8.60;59.60
17208;DHT22;8720;48.488;9.202;2024-03-06T04:39:14;8.60;59.70
17208;DHT22;8720;48.488;9.202;2024-03-06T04:41:41;8.60;59.60
17208;DHT22;8720;48.488;9.202;2024-03-06T04:44:09;8.60;59.70
17208;DHT22;8720;48.488;9.202;2024-03-06T04:46:36;8.60;59.80
17208;DHT22;8720;48.488;9.202;2024-03-06T04:49:03;8.60;59.80
17208;DHT22;8720;48.488;9.202;2024-03-06T04:51:31;8.60;59.90
17208;DHT22;8720;48.488;9.202;2024-03-06T04:54:00;8.60;59.90
17208;DHT22;8720;48.488;9.202;2024-03-06T04:56:27;8.60;60.00
17208;DHT22;8720;48.488;9.202;2024-03-06T04:58:55;8.60;59.90
17208;DHT22;8720;48.488;9.202;2024-03-06T05:01:23;8.60;60.00
17208;DHT22;8720;48.488;9.202;2024-03-06T05:03:50;8.60;60.00
17208;DHT22;8720;48.488;9.202;2024-03-06T05:06:18;8.60;60.00
17208;DHT22;8720;48.488;9.202;2024-03-06T05:08:45;8.60;60.00
17208;DHT22;8720;48.488;9.202;2024-03-06T05:11:14;8.60;60.00
17208;DHT22;8720;48.488;9.202;2024-03-06T05:13:42;8.60;60.80
17208;DHT22;8720;48.488;9.202;2024-03-06T05:16:09;8.60;60.10
17208;DHT22;8720;48.488;9.202;2024-03-06T05:18:36;8.60;60.10
17208;DHT22;8720;48.488;9.202;2024-03-06T05:21:04;8.50;60.10
17208;DHT22;8720;48.488;9.202;2024-03-06T05:23:31;8.50;60.10
17208;DHT22;8720;48.488;9.202;2024-03-06T05:25:59;8.60;60.30
17208;DHT22;8720;48.488;9.202;2024-03-06T05:28:28;8.60;60.30
17208;DHT22;8720;48.488;9.202;2024-03-06T05:30:55;8.60;60.40
17208;DHT22;8720;48.488;9.202;2024-03-06T05:33:23;8.60;60.40
17208;DHT22;8720;48.488;9.202;2024-03-06T05:35:50;8.50;60.30
17208;DHT22;8720;48.488;9.202;2024-03-06T05:38:17;8.50;60.40
17208;DHT22;8720;48.488;9.202;2024-03-06T05:40:45;8.50;60.40
17208;DHT22;8720;48.488;9.202;2024-03-06T05:43:12;8.50;60.40
17208;DHT22;8720;48.488;9.202;2024-03-06T05:45:41;8.50;60.50
17208;DHT22;8720;48.488;9.202;2024-03-06T05:48:08;8.50;61.10
17208;DHT22;8720;48.488;9.202;2024-03-06T05:50:35;8.40;62.50
17208;DHT22;8720;48.488;9.202;2024-03-06T05:53:03;8.40;62.40
17208;DHT22;8720;48.488;9.202;2024-03-06T05:55:31;8.50;62.10
17208;DHT22;8720;48.488;9.202;2024-03-06T05:57:59;8.60;62.50
17208;DHT22;8720;48.488;9.202;2024-03-06T06:00:26;8.60;61.60
17208;DHT22;8720;48.488;9.202;2024-03-06T06:02:55;8.60;61.30
17208;DHT22;8720;48.488;9.202;2024-03-06T06:05:22;8.70;61.20
17208;DHT22;8720;48.488;9.202;2024-03-06T06:07:50;8.70;61.00
17208;DHT22;8720;48.488;9.202;2024-03-06T06:10:17;8.70;61.00
17208;DHT22;8720;48.488;9.202;2024-03-06T06:12:45;8.70;60.90
17208;DHT22;8720;48.488;9.202;2024-03-06T06:15:12;8.70;60.80
17208;DHT22;8720;48.488;9.202;2024-03-06T06:17:40;8.70;60.70
17208;DHT22;8720;48.488;9.202;2024-03-06T06:20:11;8.70;60.60
17208;DHT22;8720;48.488;9.202;2024-03-06T06:22:40;8.80;60.90
17208;DHT22;8720;48.488;9.202;2024-03-06T06:25:08;8.70;60.60
17208;DHT22;8720;48.488;9.202;2024-03-06T06:27:36;8.70;60.70
17208;DHT22;8720;48.488;9.202;2024-03-06T06:30:04;8.70;60.70
17208;DHT22;8720;48.488;9.202;2024-03-06T06:32:37;8.80;60.80
17208;DHT22;8720;48.488;9.202;2024-03-06T06:35:07;8.70;60.60
17208;DHT22;8720;48.488;9.202;2024-03-06T06:37:36;8.70;60.80
17208;DHT22;8720;48.488;9.202;2024-03-06T06:40:05;8.70;60.70
17208;DHT22;8720;48.488;9.202;2024-03-06T06:42:33;8.70;60.70
17208;DHT22;8720;48.488;9.202;2024-03-06T06:45:01;8.80;60.70
17208;DHT22;8720;48.488;9.202;2024-03-06T06:47:29;8.70;60.60
17208;DHT22;8720;48.488;9.202;2024-03-06T06:49:57;8.80;60.60
17208;DHT22;8720;48.488;9.202;2024-03-06T06:52:24;8.80;60.50
17208;DHT22;8720;48.488;9.202;2024-03-06T06:54:54;8.80;60.50
17208;DHT22;8720;48.488;9.202;2024-03-06T06:57:22;8.80;60.60
17208;DHT22;8720;48.488;9.202;2024-03-06T06:59:49;8.70;60.40
17208;DHT22;8720;48.488;9.202;2024-03-06T07:02:16;8.80;60.60
17208;DHT22;8720;48.488;9.202;2024-03-06T07:04:44;8.70;60.70
17208;DHT22;8720;48.488;9.202;2024-03-06T07:07:12;8.70;60.90
17208;DHT22;8720;48.488;9.202;2024-03-06T07:09:39;8.70;61.00
17208;DHT22;8720;48.488;9.202;2024-03-06T07:12:08;8.70;61.00
17208;DHT22;8720;48.488;9.202;2024-03-06T07:14:36;8.70;61.20
17208;DHT22;8720;48.488;9.202;2024-03-06T07:17:03;8.70;61.10
17208;DHT22;8720;48.488;9.202;2024-03-06T07:19:30;8.70;61.10
17208;DHT22;8720;48.488;9.202;2024-03-06T07:21:58;8.70;61.20
17208;DHT22;8720;48.488;9.202;2024-03-06T07:24:25;8.80;61.20
17208;DHT22;8720;48.488;9.202;2024-03-06T07:26:52;8.80;61.30
17208;DHT22;8720;48.488;9.202;2024-03-06T07:29:21;8.70;61.30
17208;DHT22;8720;48.488;9.202;2024-03-06T07:31:49;8.80;61.40
17208;DHT22;8720;48.488;9.202;2024-03-06T07:34:16;8.70;61.30
17208;DHT22;8720;48.488;9.202;2024-03-06T07:36:45;8.70;61.30
17208;DHT22;8720;48.488;9.202;2024-03-06T07:39:12;8.70;61.30
17208;DHT22;8720;48.488;9.202;2024-03-06T07:41:40;8.80;61.40
17208;DHT22;8720;48.488;9.202;2024-03-06T07:44:07;8.80;61.30
17208;DHT22;8720;48.488;9.202;2024-03-06T07:46:36;8.80;61.90
17208;DHT22;8720;48.488;9.202;2024-03-06T07:49:03;8.80;61.40
17208;DHT22;8720;48.488;9.202;2024-03-06T07:51:31;8.80;61.50
17208;DHT22;8720;48.488;9.202;2024-03-06T07:53:59;8.80;61.70
17208;DHT22;8720;48.488;9.202;2024-03-06T07:56:27;8.80;61.70
17208;DHT22;8720;48.488;9.202;2024-03-06T07:58:55;8.80;61.70
17208;DHT22;8720;48.488;9.202;2024-03-06T08:01:23;8.90;61.80
17208;DHT22;8720;48.488;9.202;2024-03-06T08:03:52;8.90;62.00
17208;DHT22;8720;48.488;9.202;2024-03-06T08:06:19;8.90;62.10
17208;DHT22;8720;48.488;9.202;2024-03-06T08:08:47;8.90;62.10
17208;DHT22;8720;48.488;9.202;2024-03-06T08:11:15;9.00;62.30
17208;DHT22;8720;48.488;9.202;2024-03-06T08:13:43;9.00;62.20
17208;DHT22;8720;48.488;9.202;2024-03-06T08:16:11;9.00;62.20
17208;DHT22;8720;48.488;9.202;2024-03-06T08:18:38;9.00;62.20
17208;DHT22;8720;48.488;9.202;2024-03-06T08:21:07;9.10;62.30
17208;DHT22;8720;48.488;9.202;2024-03-06T08:23:34;9.10;62.30
17208;DHT22;8720;48.488;9.202;2024-03-06T08:26:02;9.10;62.20
17208;DHT22;8720;48.488;9.202;2024-03-06T08:28:30;9.10;62.10
17208;DHT22;8720;48.488;9.202;2024-03-06T08:30:57;9.20;62.20
17208;DHT22;8720;48.488;9.202;2024-03-06T08:33:26;9.10;62.10
17208;DHT22;8720;48.488;9.202;2024-03-06T08:35:54;9.10;62.20
17208;DHT22;8720;48.488;9.202;2024-03-06T08:38:23;9.10;62.30
17208;DHT22;8720;48.488;9.202;2024-03-06T08:40:51;9.10;62.30
17208;DHT22;8720;48.488;9.202;2024-03-06T08:43:18;9.10;62.50
17208;DHT22;8720;48.488;9.202;2024-03-06T08:45:46;9.20;62.70
17208;DHT22;8720;48.488;9.202;2024-03-06T08:48:13;9.20;62.80
17208;DHT22;8720;48.488;9.202;2024-03-06T08:50:41;9.20;63.00
17208;DHT22;8720;48.488;9.202;2024-03-06T08:53:08;9.20;63.10
17208;DHT22;8720;48.488;9.202;2024-03-06T08:55:37;9.20;63.10
17208;DHT22;8720;48.488;9.202;2024-03-06T08:58:05;9.30;63.00
17208;DHT22;8720;48.488;9.202;2024-03-06T09:00:32;9.30;63.00
17208;DHT22;8720;48.488;9.202;2024-03-06T09:03:00;9.30;63.10
17208;DHT22;8720;48.488;9.202;2024-03-06T09:05:27;9.30;63.10
17208;DHT22;8720;48.488;9.202;2024-03-06T09:07:55;9.30;63.20
17208;DHT22;8720;48.488;9.202;2024-03-06T09:10:23;9.30;63.20
17208;DHT22;8720;48.488;9.202;2024-03-06T09:12:52;9.30;63.20
17208;DHT22;8720;48.488;9.202;2024-03-06T09:15:19;9.40;63.30
17208;DHT22;8720;48.488;9.202;2024-03-06T09:17:47;9.40;63.30
17208;DHT22;8720;48.488;9.202;2024-03-06T09:20:14;9.40;63.30
17208;DHT22;8720;48.488;9.202;2024-03-06T09:22:42;9.40;63.20
17208;DHT22;8720;48.488;9.202;2024-03-06T09:25:10;9.40;63.20
17208;DHT22;8720;48.488;9.202;2024-03-06T09:27:39;9.50;64.00
17208;DHT22;8720;48.488;9.202;2024-03-06T09:30:10;9.50;63.40
17208;DHT22;8720;48.488;9.202;2024-03-06T09:32:39;9.50;63.40
17208;DHT22;8720;48.488;9.202;2024-03-06T09:35:08;9.50;63.40
17208;DHT22;8720;48.488;9.202;2024-03-06T09:37:35;9.50;63.40
17208;DHT22;8720;48.488;9.202;2024-03-06T09:40:03;9.60;63.50
17208;DHT22;8720;48.488;9.202;2024-03-06T09:42:33;9.60;63.50
17208;DHT22;8720;48.488;9.202;2024-03-06T09:45:01;9.60;63.40
17208;DHT22;8720;48.488;9.202;2024-03-06T09:47:31;9.60;63.40
17208;DHT22;8720;48.488;9.202;2024-03-06T09:50:03;9.60;63.50
17208;DHT22;8720;48.488;9.202;2024-03-06T09:52:36;9.60;63.70
17208;DHT22;8720;48.488;9.202;2024-03-06T09:55:06;9.70;63.80
17208;DHT22;8720;48.488;9.202;2024-03-06T09:57:35;9.70;63.60
17208;DHT22;8720;48.488;9.202;2024-03-06T10:00:04;9.70;63.50
17208;DHT22;8720;48.488;9.202;2024-03-06T10:02:45;9.70;63.50
17208;DHT22;8720;48.488;9.202;2024-03-06T10:05:21;9.80;63.50
17208;DHT22;8720;48.488;9.202;2024-03-06T10:07:50;9.80;63.30
17208;DHT22;8720;48.488;9.202;2024-03-06T10:10:19;9.80;63.20
17208;DHT22;8720;48.488;9.202;2024-03-06T10:12:51;9.80;63.10
17208;DHT22;8720;48.488;9.202;2024-03-06T10:15:28;9.80;63.10
17208;DHT22;8720;48.488;9.202;2024-03-06T10:20:49;9.70;63.00
17208;DHT22;8720;48.488;9.202;2024-03-06T10:23:18;9.70;63.30
17208;DHT22;8720;48.488;9.202;2024-03-06T10:25:47;9.80;63.30
17208;DHT22;8720;48.488;9.202;2024-03-06T10:28:19;9.80;63.10
17208;DHT22;8720;48.488;9.202;2024-03-06T10:30:48;9.80;63.10
17208;DHT22;8720;48.488;9.202;2024-03-06T10:33:18;9.80;63.00
17208;DHT22;8720;48.488;9.202;2024-03-06T10:35:47;9.80;63.20
17208;DHT22;8720;48.488;9.202;2024-03-06T10:38:20;9.80;63.20
17208;DHT22;8720;48.488;9.202;2024-03-06T10:40:50;9.70;63.00
17208;DHT22;8720;48.488;9.202;2024-03-06T10:43:18;9.70;63.00
17208;DHT22;8720;48.488;9.202;2024-03-06T10:45:49;9.70;63.00
17208;DHT22;8720;48.488;9.202;2024-03-06T10:48:18;9.70;63.10
17208;DHT22;8720;48.488;9.202;2024-03-06T10:50:47;9.70;63.30
17208;DHT22;8720;48.488;9.202;2024-03-06T10:53:18;9.60;63.40
17208;DHT22;8720;48.488;9.202;2024-03-06T10:55:47;9.50;63.50
17208;DHT22;8720;48.488;9.202;2024-03-06T10:58:16;9.50;63.80
17208;DHT22;8720;48.488;9.202;2024-03-06T11:00:46;9.50;64.00
17208;DHT22;8720;48.488;9.202;2024-03-06T11:03:15;9.40;64.10
17208;DHT22;8720;48.488;9.202;2024-03-06T11:05:44;9.40;64.30
17208;DHT22;8720;48.488;9.202;2024-03-06T11:08:15;9.40;64.40
17208;DHT22;8720;48.488;9.202;2024-03-06T11:10:43;9.40;64.60
17208;DHT22;8720;48.488;9.202;2024-03-06T11:13:21;9.30;64.60
17208;DHT22;8720;48.488;9.202;2024-03-06T11:15:51;9.30;64.70
17208;DHT22;8720;48.488;9.202;2024-03-06T11:18:41;9.30;64.80
17208;DHT22;8720;48.488;9.202;2024-03-06T11:21:29;9.30;64.80
17208;DHT22;8720;48.488;9.202;2024-03-06T11:24:15;9.30;64.90
17208;DHT22;8720;48.488;9.202;2024-03-06T11:26:55;9.20;65.00
17208;DHT22;8720;48.488;9.202;2024-03-06T11:29:26;9.20;65.30
17208;DHT22;8720;48.488;9.202;2024-03-06T11:32:03;9.30;65.70
17208;DHT22;8720;48.488;9.202;2024-03-06T11:34:36;9.20;66.30
17208;DHT22;8720;48.488;9.202;2024-03-06T11:37:05;9.20;65.90
17208;DHT22;8720;48.488;9.202;2024-03-06T11:39:37;9.20;66.20
17208;DHT22;8720;48.488;9.202;2024-03-06T11:42:06;9.30;66.60
17208;DHT22;8720;48.488;9.202;2024-03-06T11:44:35;9.30;66.70
17208;DHT22;8720;48.488;9.202;2024-03-06T11:47:04;9.30;66.80
17208;DHT22;8720;48.488;9.202;2024-03-06T11:49:35;9.30;66.80
17208;DHT22;8720;48.488;9.202;2024-03-06T11:52:04;9.40;66.60
17208;DHT22;8720;48.488;9.202;2024-03-06T11:54:33;9.30;66.30
17208;DHT22;8720;48.488;9.202;2024-03-06T11:57:04;9.30;66.40
17208;DHT22;8720;48.488;9.202;2024-03-06T11:59:33;9.30;66.50
17208;DHT22;8720;48.488;9.202;2024-03-06T12:02:02;9.30;66.50
17208;DHT22;8720;48.488;9.202;2024-03-06T12:04:32;9.30;66.50
17208;DHT22;8720;48.488;9.202;2024-03-06T12:07:01;9.30;66.70
17208;DHT22;8720;48.488;9.202;2024-03-06T12:09:32;9.30;66.70
17208;DHT22;8720;48.488;9.202;2024-03-06T12:12:01;9.30;66.70
17208;DHT22;8720;48.488;9.202;2024-03-06T12:14:29;9.30;66.70
17208;DHT22;8720;48.488;9.202;2024-03-06T12:16:57;9.20;66.80
17208;DHT22;8720;48.488;9.202;2024-03-06T12:19:26;9.20;67.00
17208;DHT22;8720;48.488;9.202;2024-03-06T12:21:55;9.20;67.20
17208;DHT22;8720;48.488;9.202;2024-03-06T12:24:26;9.20;67.40
17208;DHT22;8720;48.488;9.202;2024-03-06T12:27:01;9.20;67.50
17208;DHT22;8720;48.488;9.202;2024-03-06T12:29:31;9.20;68.10
17208;DHT22;8720;48.488;9.202;2024-03-06T12:32:00;9.20;68.10
17208;DHT22;8720;48.488;9.202;2024-03-06T12:34:28;9.20;68.30
17208;DHT22;8720;48.488;9.202;2024-03-06T12:36:56;9.30;68.40
17208;DHT22;8720;48.488;9.202;2024-03-06T12:39:24;9.30;68.40
17208;DHT22;8720;48.488;9.202;2024-03-06T12:41:51;9.30;68.70
17208;DHT22;8720;48.488;9.202;2024-03-06T12:44:20;9.40;68.90
17208;DHT22;8720;48.488;9.202;2024-03-06T12:46:48;9.40;68.90
17208;DHT22;8720;48.488;9.202;2024-03-06T12:49:15;9.40;69.20
17208;DHT22;8720;48.488;9.202;2024-03-06T12:51:44;9.40;69.10
17208;DHT22;8720;48.488;9.202;2024-03-06T12:54:11;9.40;68.80
17208;DHT22;8720;48.488;9.202;2024-03-06T12:56:39;9.40;68.80
17208;DHT22;8720;48.488;9.202;2024-03-06T12:59:07;9.30;68.40
17208;DHT22;8720;48.488;9.202;2024-03-06T13:01:37;9.30;68.40
17208;DHT22;8720;48.488;9.202;2024-03-06T13:04:05;9.30;68.80
17208;DHT22;8720;48.488;9.202;2024-03-06T13:06:33;9.30;69.30
17208;DHT22;8720;48.488;9.202;2024-03-06T13:09:01;9.30;69.80
17208;DHT22;8720;48.488;9.202;2024-03-06T13:11:28;9.30;70.10
17208;DHT22;8720;48.488;9.202;2024-03-06T13:13:56;9.30;70.20
17208;DHT22;8720;48.488;9.202;2024-03-06T13:16:23;9.30;70.00
17208;DHT22;8720;48.488;9.202;2024-03-06T13:18:52;9.30;69.90
17208;DHT22;8720;48.488;9.202;2024-03-06T13:21:22;9.30;69.80
17208;DHT22;8720;48.488;9.202;2024-03-06T13:23:50;9.40;70.40
17208;DHT22;8720;48.488;9.202;2024-03-06T13:26:17;9.40;70.50
17208;DHT22;8720;48.488;9.202;2024-03-06T13:28:44;9.40;70.20
17208;DHT22;8720;48.488;9.202;2024-03-06T13:31:12;9.40;70.30
17208;DHT22;8720;48.488;9.202;2024-03-06T13:33:39;9.40;70.30
17208;DHT22;8720;48.488;9.202;2024-03-06T13:36:08;9.40;70.50
17208;DHT22;8720;48.488;9.202;2024-03-06T13:38:36;9.50;70.70
17208;DHT22;8720;48.488;9.202;2024-03-06T13:41:03;9.50;70.90
17208;DHT22;8720;48.488;9.202;2024-03-06T13:43:31;9.50;70.70
17208;DHT22;8720;48.488;9.202;2024-03-06T13:45:59;9.50;70.90
17208;DHT22;8720;48.488;9.202;2024-03-06T13:48:26;9.50;71.20
17208;DHT22;8720;48.488;9.202;2024-03-06T13:50:54;9.60;71.40
17208;DHT22;8720;48.488;9.202;2024-03-06T13:53:22;9.60;71.40
17208;DHT22;8720;48.488;9.202;2024-03-06T13:55:50;9.60;71.10
17208;DHT22;8720;48.488;9.202;2024-03-06T13:58:17;9.60;71.50
17208;DHT22;8720;48.488;9.202;2024-03-06T14:00:45;9.60;71.80
17208;DHT22;8720;48.488;9.202;2024-03-06T14:03:13;9.70;72.10
17208;DHT22;8720;48.488;9.202;2024-03-06T14:05:40;9.70;72.10
17208;DHT22;8720;48.488;9.202;2024-03-06T14:08:08;9.70;72.00
17208;DHT22;8720;48.488;9.202;2024-03-06T14:10:39;9.80;71.90
17208;DHT22;8720;48.488;9.202;2024-03-06T14:13:06;9.80;71.60
17208;DHT22;8720;48.488;9.202;2024-03-06T14:15:34;9.80;71.90
17208;DHT22;8720;48.488;9.202;2024-03-06T14:18:01;9.80;71.90
17208;DHT22;8720;48.488;9.202;2024-03-06T14:20:30;9.90;71.90
17208;DHT22;8720;48.488;9.202;2024-03-06T14:22:58;9.90;71.50
17208;DHT22;8720;48.488;9.202;2024-03-06T14:25:26;9.90;71.30
17208;DHT22;8720;48.488;9.202;2024-03-06T14:27:56;9.90;71.40
17208;DHT22;8720;48.488;9.202;2024-03-06T14:30:24;9.90;71.20
17208;DHT22;8720;48.488;9.202;2024-03-06T14:32:52;9.90;71.40
17208;DHT22;8720;48.488;9.202;2024-03-06T14:35:20;9.90;71.50
17208;DHT22;8720;48.488;9.202;2024-03-06T14:37:48;9.90;71.50
17208;DHT22;8720;48.488;9.202;2024-03-06T14:40:16;9.90;71.60
17208;DHT22;8720;48.488;9.202;2024-03-06T14:42:47;9.90;72.30
17208;DHT22;8720;48.488;9.202;2024-03-06T14:45:16;9.90;71.30
17208;DHT22;8720;48.488;9.202;2024-03-06T14:47:44;9.90;71.50
17208;DHT22;8720;48.488;9.202;2024-03-06T14:50:12;9.90;71.80
17208;DHT22;8720;48.488;9.202;2024-03-06T14:52:40;9.90;71.80
17208;DHT22;8720;48.488;9.202;2024-03-06T14:55:08;9.90;71.80
17208;DHT22;8720;48.488;9.202;2024-03-06T14:57:36;9.90;71.70
17208;DHT22;8720;48.488;9.202;2024-03-06T15:00:05;9.90;71.60
17208;DHT22;8720;48.488;9.202;2024-03-06T15:02:36;9.90;71.60
17208;DHT22;8720;48.488;9.202;2024-03-06T15:05:04;9.90;71.50
17208;DHT22;8720;48.488;9.202;2024-03-06T15:07:32;9.90;71.70
17208;DHT22;8720;48.488;9.202;2024-03-06T15:10:00;9.90;71.70
17208;DHT22;8720;48.488;9.202;2024-03-06T15:12:28;10.00;71.30
17208;DHT22;8720;48.488;9.202;2024-03-06T15:14:56;10.00;70.50
17208;DHT22;8720;48.488;9.202;2024-03-06T15:17:24;9.90;71.30
17208;DHT22;8720;48.488;9.202;2024-03-06T15:19:54;9.90;71.40
17208;DHT22;8720;48.488;9.202;2024-03-06T15:22:22;9.90;71.10
17208;DHT22;8720;48.488;9.202;2024-03-06T15:24:50;9.90;71.30
17208;DHT22;8720;48.488;9.202;2024-03-06T15:27:18;9.90;71.40
17208;DHT22;8720;48.488;9.202;2024-03-06T15:29:45;9.90;71.40
17208;DHT22;8720;48.488;9.202;2024-03-06T15:32:13;9.90;71.50
17208;DHT22;8720;48.488;9.202;2024-03-06T15:34:40;9.90;71.50
17208;DHT22;8720;48.488;9.202;2024-03-06T15:37:10;9.90;71.60
17208;DHT22;8720;48.488;9.202;2024-03-06T15:39:38;9.90;71.50
17208;DHT22;8720;48.488;9.202;2024-03-06T15:42:05;9.90;71.90
17208;DHT22;8720;48.488;9.202;2024-03-06T15:44:33;9.90;72.00
17208;DHT22;8720;48.488;9.202;2024-03-06T15:47:03;9.90;72.10
17208;DHT22;8720;48.488;9.202;2024-03-06T15:49:32;9.90;72.10
17208;DHT22;8720;48.488;9.202;2024-03-06T15:51:59;9.90;72.20
17208;DHT22;8720;48.488;9.202;2024-03-06T15:54:28;9.90;72.20
17208;DHT22;8720;48.488;9.202;2024-03-06T15:56:56;9.90;71.80
17208;DHT22;8720;48.488;9.202;2024-03-06T15:59:24;9.90;72.10
17208;DHT22;8720;48.488;9.202;2024-03-06T16:01:54;9.90;72.00
17208;DHT22;8720;48.488;9.202;2024-03-06T16:04:22;9.90;72.00
17208;DHT22;8720;48.488;9.202;2024-03-06T16:06:50;9.90;72.10
17208;DHT22;8720;48.488;9.202;2024-03-06T16:09:18;9.90;72.10
17208;DHT22;8720;48.488;9.202;2024-03-06T16:11:49;9.90;72.20
17208;DHT22;8720;48.488;9.202;2024-03-06T16:14:19;9.90;71.90
17208;DHT22;8720;48.488;9.202;2024-03-06T16:16:47;9.90;72.20
17208;DHT22;8720;48.488;9.202;2024-03-06T16:19:14;9.90;72.20
17208;DHT22;8720;48.488;9.202;2024-03-06T16:21:42;9.90;72.20
17208;DHT22;8720;48.488;9.202;2024-03-06T16:24:09;9.90;72.30
17208;DHT22;8720;48.488;9.202;2024-03-06T16:26:37;9.90;72.30
17208;DHT22;8720;48.488;9.202;2024-03-06T16:29:07;9.90;72.30
17208;DHT22;8720;48.488;9.202;2024-03-06T16:31:36;9.90;72.10
17208;DHT22;8720;48.488;9.202;2024-03-06T16:34:03;9.90;72.40